Costilla, New Mexico
Current Conditions -  °F | °C
As of 2:52 PM on Monday 20 Oct 2014 (Local Time) from KALS Reporting Station
Clear Clear  
Wind Chill: 67°   Ceiling: Unl
Heat Index: 67°   Visibility: 10mi
Dew Point: 29°   Wind: 9mph
Humidity: 24%   Direction: 190°S
Pressure: 30.22"   Gusts: NA
Location:  36.99°N, 105.53°W
Report Text: KALS 202052Z AUTO 19008KT 10SM CLR 19/M02 A3022 RMK AO2 SLP170 T01941017 56024
Loading
Personal Weather Stations






























Interactive Weather Map
Tropical Storm Tracking
New forecast layout! Learn more

10-Day Weather Forecast

Advertisements
Track Severe Weather on mobile